createdAt,value
2018-03-08T00:00:38.539Z,0.00
2018-03-08T00:01:38.478Z,0.00
2018-03-08T00:02:38.404Z,0.00
2018-03-08T00:03:38.347Z,0.00
2018-03-08T00:04:38.310Z,0.00
2018-03-08T00:05:38.274Z,0.00
2018-03-08T00:06:38.267Z,0.00
2018-03-08T00:07:38.206Z,0.00
2018-03-08T00:08:38.166Z,0.00
2018-03-08T00:09:38.121Z,0.00
2018-03-08T00:10:38.053Z,0.00
2018-03-08T00:11:38.039Z,0.00
2018-03-08T00:12:38.024Z,0.00
2018-03-08T00:13:37.922Z,0.00
2018-03-08T00:14:37.930Z,0.00
2018-03-08T00:15:37.869Z,0.00
2018-03-08T00:16:37.809Z,0.00
2018-03-08T00:17:37.786Z,0.00
2018-03-08T00:18:37.719Z,0.00
2018-03-08T00:19:37.695Z,0.00
2018-03-08T00:20:37.627Z,0.00
2018-03-08T00:21:37.590Z,0.00
2018-03-08T00:22:37.534Z,0.00
2018-03-08T00:23:37.509Z,0.00
2018-03-08T00:24:37.460Z,0.00
2018-03-08T00:25:37.490Z,0.00
2018-03-08T00:26:37.380Z,0.00
2018-03-08T00:27:37.368Z,0.00
2018-03-08T00:28:37.309Z,0.00
2018-03-08T00:29:37.264Z,0.00
2018-03-08T00:30:37.219Z,0.00
2018-03-08T00:31:37.174Z,0.00
2018-03-08T00:32:37.130Z,0.00
2018-03-08T00:33:37.089Z,0.00
2018-03-08T00:34:37.072Z,0.00
2018-03-08T00:35:37.039Z,0.00
2018-03-08T00:36:37.662Z,0.00
2018-03-08T00:37:37.012Z,0.00
2018-03-08T00:38:36.872Z,0.00
2018-03-08T00:39:36.833Z,0.00
2018-03-08T00:40:36.816Z,0.00
2018-03-08T00:41:36.763Z,0.00
2018-03-08T00:42:36.713Z,0.00
2018-03-08T00:43:36.679Z,0.00
2018-03-08T00:44:37.165Z,0.00
2018-03-08T00:45:36.581Z,0.00
2018-03-08T00:46:36.548Z,0.00
2018-03-08T00:47:36.525Z,0.00
2018-03-08T00:48:36.477Z,0.00
2018-03-08T00:49:36.396Z,0.00
2018-03-08T00:50:36.369Z,0.00
2018-03-08T00:51:36.341Z,0.00
2018-03-08T00:52:36.326Z,0.00
2018-03-08T00:53:36.268Z,0.00
2018-03-08T00:54:36.237Z,0.00
2018-03-08T00:55:36.171Z,0.00
2018-03-08T00:56:36.123Z,0.00
2018-03-08T00:57:36.101Z,0.00
2018-03-08T00:58:36.032Z,0.00
2018-03-08T00:59:36.023Z,0.00
2018-03-08T01:00:35.968Z,0.00
2018-03-08T01:01:35.935Z,0.00
2018-03-08T01:02:35.870Z,0.00
2018-03-08T01:03:35.858Z,0.00
2018-03-08T01:04:35.776Z,0.00
2018-03-08T01:05:35.759Z,0.00
2018-03-08T01:06:35.704Z,0.00
2018-03-08T01:07:35.682Z,0.00
2018-03-08T01:08:35.613Z,0.00
2018-03-08T01:09:35.580Z,0.00
2018-03-08T01:10:35.551Z,0.00
2018-03-08T01:11:35.494Z,0.00
2018-03-08T01:12:36.165Z,0.00
2018-03-08T01:13:35.506Z,0.00
2018-03-08T01:14:35.361Z,0.00
2018-03-08T01:15:35.326Z,0.00
2018-03-08T01:16:35.270Z,0.00
2018-03-08T01:17:35.237Z,0.00
2018-03-08T01:18:35.205Z,0.00
2018-03-08T01:19:35.165Z,0.00
2018-03-08T01:20:35.142Z,0.00
2018-03-08T01:21:35.086Z,0.00
2018-03-08T01:22:35.032Z,0.00
2018-03-08T01:23:34.979Z,0.00
2018-03-08T01:24:34.954Z,0.00
2018-03-08T01:25:34.931Z,0.00
2018-03-08T01:26:34.904Z,0.00
2018-03-08T01:27:34.816Z,0.00
2018-03-08T01:28:34.775Z,0.00
2018-03-08T01:29:34.723Z,0.00
2018-03-08T01:30:34.700Z,0.00
2018-03-08T01:31:34.667Z,0.00
2018-03-08T01:32:34.612Z,0.00
2018-03-08T01:33:34.601Z,0.00
2018-03-08T01:34:34.523Z,0.00
2018-03-08T01:35:34.488Z,0.00
2018-03-08T01:36:34.436Z,0.00
2018-03-08T01:37:34.411Z,0.00
2018-03-08T01:38:34.357Z,0.00
2018-03-08T01:39:34.336Z,0.00
2018-03-08T01:40:34.270Z,0.00
2018-03-08T01:41:34.232Z,0.00
2018-03-08T01:42:34.211Z,0.00
2018-03-08T01:43:34.150Z,0.00
2018-03-08T01:44:34.103Z,0.00
2018-03-08T01:45:34.093Z,0.00
2018-03-08T01:46:34.031Z,0.00
2018-03-08T01:47:33.993Z,0.00
2018-03-08T01:48:33.929Z,0.00
2018-03-08T01:49:33.909Z,0.00
2018-03-08T01:50:33.852Z,0.00
2018-03-08T01:51:33.815Z,0.00
2018-03-08T01:52:33.767Z,0.00
2018-03-08T01:53:33.723Z,0.00
2018-03-08T01:54:33.685Z,0.00
2018-03-08T01:55:33.648Z,0.00
2018-03-08T01:56:33.613Z,0.00
2018-03-08T01:57:33.565Z,0.00
2018-03-08T01:58:33.508Z,0.00
2018-03-08T01:59:33.475Z,0.00
2018-03-08T02:00:33.442Z,0.00
2018-03-08T02:01:33.403Z,0.00
2018-03-08T02:02:33.392Z,0.00
2018-03-08T02:03:33.317Z,0.00
2018-03-08T02:04:33.290Z,0.00
2018-03-08T02:05:33.227Z,0.00
2018-03-08T02:06:33.212Z,0.00
2018-03-08T02:07:33.144Z,0.00
2018-03-08T02:08:33.096Z,0.00
2018-03-08T02:09:33.059Z,0.00
2018-03-08T02:10:33.017Z,0.00
2018-03-08T02:11:33.007Z,0.00
2018-03-08T02:12:33.017Z,0.00
2018-03-08T02:13:32.905Z,0.00
2018-03-08T02:14:32.874Z,0.00
2018-03-08T02:15:32.820Z,0.00
2018-03-08T02:16:32.769Z,0.00
2018-03-08T02:17:32.731Z,0.00
2018-03-08T02:18:32.705Z,0.00
2018-03-08T02:19:32.668Z,0.00
2018-03-08T02:20:32.626Z,0.00
2018-03-08T02:21:32.551Z,0.00
2018-03-08T02:22:33.182Z,0.00
2018-03-08T02:23:32.483Z,0.00
2018-03-08T02:24:32.447Z,0.00
2018-03-08T02:25:32.413Z,0.00
2018-03-08T02:26:32.368Z,0.00
2018-03-08T02:27:32.309Z,0.00
2018-03-08T02:28:32.266Z,0.00
2018-03-08T02:29:32.230Z,0.00
2018-03-08T02:30:32.188Z,0.00
2018-03-08T02:31:32.151Z,0.00
2018-03-08T02:32:32.163Z,0.00
2018-03-08T02:33:32.062Z,0.00
2018-03-08T02:34:32.042Z,0.00
2018-03-08T02:35:31.971Z,0.00
2018-03-08T02:36:31.993Z,0.00
2018-03-08T02:37:31.930Z,0.00
2018-03-08T02:38:31.855Z,0.00
2018-03-08T02:39:31.831Z,0.00
2018-03-08T02:40:31.775Z,0.00
2018-03-08T02:41:31.745Z,0.00
2018-03-08T02:42:31.685Z,0.00
2018-03-08T02:43:31.663Z,0.00
2018-03-08T02:44:31.630Z,0.00
2018-03-08T02:45:31.547Z,0.00
2018-03-08T02:46:31.522Z,0.00
2018-03-08T02:47:31.497Z,0.00
2018-03-08T02:48:31.450Z,0.00
2018-03-08T02:49:31.435Z,0.00
2018-03-08T02:50:31.373Z,0.00
2018-03-08T02:51:31.311Z,0.00
2018-03-08T02:52:31.281Z,0.00
2018-03-08T02:53:31.227Z,0.00
2018-03-08T02:54:31.185Z,0.00
2018-03-08T02:55:31.144Z,0.00
2018-03-08T02:56:31.125Z,0.00
2018-03-08T02:57:31.119Z,0.00
2018-03-08T02:58:31.037Z,0.00
2018-03-08T02:59:31.005Z,0.00
2018-03-08T03:00:30.938Z,0.00
2018-03-08T03:01:30.895Z,0.00
2018-03-08T03:02:30.864Z,0.00
2018-03-08T03:03:30.830Z,0.00
2018-03-08T03:04:30.804Z,0.00
2018-03-08T03:05:30.752Z,0.00
2018-03-08T03:06:30.677Z,0.00
2018-03-08T03:07:30.660Z,0.00
2018-03-08T03:08:30.622Z,0.00
2018-03-08T03:09:30.569Z,0.00
2018-03-08T03:10:30.521Z,0.00
2018-03-08T03:11:30.481Z,0.00
2018-03-08T03:12:30.445Z,0.00
2018-03-08T03:13:30.401Z,0.00
2018-03-08T03:14:30.403Z,0.00
2018-03-08T03:15:31.212Z,0.00
2018-03-08T03:16:30.264Z,0.00
2018-03-08T03:17:30.227Z,0.00
2018-03-08T03:18:30.198Z,0.00
2018-03-08T03:19:30.165Z,0.00
2018-03-08T03:20:30.136Z,0.00
2018-03-08T03:21:30.100Z,0.00
2018-03-08T03:22:30.032Z,0.00
2018-03-08T03:23:29.995Z,0.00
2018-03-08T03:24:29.948Z,0.00
2018-03-08T03:25:29.899Z,0.00
2018-03-08T03:26:29.847Z,0.00
2018-03-08T03:27:29.864Z,0.00
2018-03-08T03:28:29.786Z,0.00
2018-03-08T03:29:29.728Z,0.00
2018-03-08T03:30:29.706Z,0.00
2018-03-08T03:31:29.653Z,0.00
2018-03-08T03:32:29.626Z,0.00
2018-03-08T03:33:29.563Z,0.00
2018-03-08T03:34:29.559Z,0.00
2018-03-08T03:35:29.581Z,0.00
2018-03-08T03:36:29.441Z,0.00
2018-03-08T03:37:29.415Z,0.00
2018-03-08T03:38:29.402Z,0.00
2018-03-08T03:39:29.311Z,0.00
2018-03-08T03:40:29.285Z,0.00
2018-03-08T03:41:29.236Z,0.00
2018-03-08T03:42:29.196Z,0.00
2018-03-08T03:43:29.146Z,0.00
2018-03-08T03:44:29.133Z,0.00
2018-03-08T03:45:29.107Z,0.00
2018-03-08T03:46:29.693Z,0.00
2018-03-08T03:47:28.989Z,0.00
2018-03-08T03:48:28.971Z,0.00
2018-03-08T03:49:28.948Z,0.00
2018-03-08T03:50:28.916Z,0.00
2018-03-08T03:51:28.833Z,0.00
2018-03-08T03:52:28.820Z,0.00
2018-03-08T03:53:28.741Z,0.00
2018-03-08T03:54:28.717Z,0.00
2018-03-08T03:55:28.638Z,0.00
2018-03-08T03:56:28.604Z,0.00
2018-03-08T03:57:28.566Z,0.00
2018-03-08T03:58:28.527Z,0.00
2018-03-08T03:59:28.514Z,0.00
2018-03-08T04:00:28.451Z,0.00
2018-03-08T04:01:28.411Z,0.00
2018-03-08T04:02:28.381Z,0.00
2018-03-08T04:03:28.321Z,0.00
2018-03-08T04:04:28.333Z,0.00
2018-03-08T04:05:28.231Z,0.00
2018-03-08T04:06:28.196Z,0.00
2018-03-08T04:07:28.162Z,0.00
2018-03-08T04:08:28.111Z,0.00
2018-03-08T04:09:28.086Z,0.00
2018-03-08T04:10:28.039Z,0.00
2018-03-08T04:11:27.996Z,0.00
2018-03-08T04:12:27.944Z,0.00
2018-03-08T04:13:27.904Z,0.00
2018-03-08T04:14:27.855Z,0.00
2018-03-08T04:15:27.829Z,0.00
2018-03-08T04:16:27.777Z,0.00
2018-03-08T04:17:27.757Z,0.00
2018-03-08T04:18:27.699Z,0.00
2018-03-08T04:19:27.666Z,0.00
2018-03-08T04:20:27.652Z,0.00
2018-03-08T04:21:27.573Z,0.00
2018-03-08T04:22:27.549Z,0.00
2018-03-08T04:23:27.495Z,0.00
2018-03-08T04:24:27.451Z,0.00
2018-03-08T04:25:27.402Z,0.00
2018-03-08T04:26:27.390Z,0.00
2018-03-08T04:27:27.321Z,0.00
2018-03-08T04:28:27.277Z,0.00
2018-03-08T04:29:27.232Z,0.00
2018-03-08T04:30:27.203Z,0.00
2018-03-08T04:31:27.149Z,0.00
2018-03-08T04:32:27.132Z,0.00
2018-03-08T04:33:27.066Z,0.00
2018-03-08T04:34:27.039Z,0.00
2018-03-08T04:35:27.010Z,0.00
2018-03-08T04:36:26.977Z,0.00
2018-03-08T04:37:27.017Z,0.00
2018-03-08T04:38:26.866Z,0.00
2018-03-08T04:39:26.820Z,0.00
2018-03-08T04:40:26.778Z,0.00
2018-03-08T04:41:26.743Z,0.00
2018-03-08T04:42:26.694Z,0.00
2018-03-08T04:43:26.654Z,0.00
2018-03-08T04:44:26.620Z,0.00
2018-03-08T04:45:26.609Z,0.00
2018-03-08T04:46:26.523Z,0.00
2018-03-08T04:47:26.502Z,0.00
2018-03-08T04:48:26.461Z,0.00
2018-03-08T04:49:26.419Z,0.00
2018-03-08T04:50:26.391Z,0.00
2018-03-08T04:51:26.342Z,0.00
2018-03-08T04:52:26.288Z,0.00
2018-03-08T04:53:26.247Z,0.00
2018-03-08T04:54:26.202Z,0.00
2018-03-08T04:55:26.173Z,0.00
2018-03-08T04:56:26.146Z,0.00
2018-03-08T04:57:26.109Z,0.00
2018-03-08T04:58:26.054Z,0.00
2018-03-08T04:59:26.073Z,0.00
2018-03-08T05:00:25.946Z,0.00
2018-03-08T05:01:25.907Z,0.00
2018-03-08T05:02:25.870Z,0.00
2018-03-08T05:03:25.829Z,0.00
2018-03-08T05:04:25.826Z,0.00
2018-03-08T05:05:25.746Z,0.00
2018-03-08T05:06:25.743Z,0.00
2018-03-08T05:07:25.669Z,0.00
2018-03-08T05:08:25.612Z,0.00
2018-03-08T05:09:25.571Z,0.00
2018-03-08T05:10:25.524Z,0.00
2018-03-08T05:11:25.477Z,0.00
2018-03-08T05:12:25.431Z,4.00
2018-03-08T05:13:25.430Z,4.00
2018-03-08T05:14:25.366Z,0.00
2018-03-08T05:15:25.321Z,4.00
2018-03-08T05:16:25.331Z,4.00
2018-03-08T05:17:25.243Z,4.00
2018-03-08T05:18:25.272Z,8.00
2018-03-08T05:19:25.193Z,8.00
2018-03-08T05:20:25.160Z,12.00
2018-03-08T05:21:25.098Z,12.00
2018-03-08T05:22:25.058Z,20.00
2018-03-08T05:23:24.975Z,24.00
2018-03-08T05:24:24.940Z,24.00
2018-03-08T05:25:24.931Z,32.00
2018-03-08T05:26:24.878Z,40.00
2018-03-08T05:27:24.808Z,48.00
2018-03-08T05:28:24.779Z,60.00
2018-03-08T05:29:24.777Z,68.00
2018-03-08T05:30:24.718Z,80.00
2018-03-08T05:31:24.657Z,96.00
2018-03-08T05:32:24.625Z,112.00
2018-03-08T05:33:24.569Z,136.00
2018-03-08T05:34:24.527Z,156.00
2018-03-08T05:35:24.510Z,180.00
2018-03-08T05:36:24.468Z,204.00
2018-03-08T05:37:24.507Z,232.00
2018-03-08T05:38:24.369Z,256.00
2018-03-08T05:39:24.362Z,280.00
2018-03-08T05:40:24.275Z,308.00
2018-03-08T05:41:24.291Z,332.00
2018-03-08T05:42:24.219Z,360.00
2018-03-08T05:43:24.151Z,392.00
2018-03-08T05:44:24.119Z,424.00
2018-03-08T05:45:24.057Z,456.00
2018-03-08T05:46:24.039Z,496.00
2018-03-08T05:47:24.022Z,540.00
2018-03-08T05:48:23.987Z,588.00
2018-03-08T05:49:23.916Z,656.00
2018-03-08T05:50:23.893Z,740.00
2018-03-08T05:51:23.847Z,820.00
2018-03-08T05:52:23.817Z,912.00
2018-03-08T05:53:23.770Z,1020.00
2018-03-08T05:54:23.762Z,1136.00
2018-03-08T05:55:23.659Z,1248.00
2018-03-08T05:56:23.610Z,1352.00
2018-03-08T05:57:23.650Z,1456.00
2018-03-08T05:58:23.536Z,1556.00
2018-03-08T05:59:23.510Z,1648.00
2018-03-08T06:00:23.438Z,1744.00
2018-03-08T06:01:23.404Z,1840.00
2018-03-08T06:02:23.388Z,1864.00
2018-03-08T06:03:23.328Z,1880.00
2018-03-08T06:04:23.276Z,1900.00
2018-03-08T06:05:23.251Z,1896.00
2018-03-08T06:06:23.189Z,1960.00
2018-03-08T06:07:23.149Z,1884.00
2018-03-08T06:08:23.126Z,1916.00
2018-03-08T06:09:23.101Z,1972.00
2018-03-08T06:10:23.052Z,1900.00
2018-03-08T06:11:22.999Z,1816.00
2018-03-08T06:12:22.958Z,1748.00
2018-03-08T06:13:22.927Z,1656.00
2018-03-08T06:14:22.877Z,1760.00
2018-03-08T06:15:22.822Z,1992.00
2018-03-08T06:16:22.766Z,2012.00
2018-03-08T06:17:22.772Z,1876.00
2018-03-08T06:18:22.686Z,1744.00
2018-03-08T06:19:22.662Z,1616.00
2018-03-08T06:20:22.642Z,1568.00
2018-03-08T06:21:22.574Z,1700.00
2018-03-08T06:22:22.517Z,1740.00
2018-03-08T06:23:22.507Z,1724.00
2018-03-08T06:24:22.440Z,1732.00
2018-03-08T06:25:22.406Z,1808.00
2018-03-08T06:26:22.400Z,1908.00
2018-03-08T06:27:22.306Z,1944.00
2018-03-08T06:28:22.302Z,2124.00
2018-03-08T06:29:22.234Z,2372.00
2018-03-08T06:30:22.215Z,2612.00
2018-03-08T06:31:22.185Z,3064.00
2018-03-08T06:32:22.109Z,3804.00
2018-03-08T06:33:22.085Z,4388.00
2018-03-08T06:34:22.030Z,5264.00
2018-03-08T06:35:21.999Z,5480.00
2018-03-08T06:36:21.935Z,6064.00
2018-03-08T06:37:21.910Z,6112.00
2018-03-08T06:38:21.873Z,5284.00
2018-03-08T06:39:21.816Z,5500.00
2018-03-08T06:40:21.808Z,6120.00
2018-03-08T06:41:21.752Z,6436.00
2018-03-08T06:42:21.707Z,6720.00
2018-03-08T06:43:21.692Z,7380.00
2018-03-08T06:44:21.640Z,7552.00
2018-03-08T06:45:21.608Z,7332.00
2018-03-08T06:46:21.541Z,6924.00
2018-03-08T06:47:21.488Z,6712.00
2018-03-08T06:48:21.448Z,6808.00
2018-03-08T06:49:21.426Z,7000.00
2018-03-08T06:50:21.376Z,7288.00
2018-03-08T06:51:21.326Z,7672.00
2018-03-08T06:52:21.277Z,7664.00
2018-03-08T06:53:21.233Z,7632.00
2018-03-08T06:54:21.199Z,7464.00
2018-03-08T06:55:21.261Z,7552.00
2018-03-08T06:56:21.116Z,7784.00
2018-03-08T06:57:21.070Z,7576.00
2018-03-08T06:58:21.022Z,7684.00
2018-03-08T06:59:20.981Z,7836.00
2018-03-08T07:00:20.946Z,7992.00
2018-03-08T07:01:20.897Z,8004.00
2018-03-08T07:02:20.890Z,8236.00
2018-03-08T07:03:20.830Z,8432.00
2018-03-08T07:04:20.794Z,8568.00
2018-03-08T07:05:20.754Z,8760.00
2018-03-08T07:06:20.716Z,8924.00
2018-03-08T07:07:20.676Z,9412.00
2018-03-08T07:08:20.695Z,10044.00
2018-03-08T07:09:20.568Z,10352.00
2018-03-08T07:10:20.558Z,10176.00
2018-03-08T07:11:20.495Z,10252.00
2018-03-08T07:12:20.458Z,10504.00
2018-03-08T07:13:20.414Z,10144.00
2018-03-08T07:14:20.407Z,10576.00
2018-03-08T07:15:20.337Z,11180.00
2018-03-08T07:16:20.295Z,12584.00
2018-03-08T07:17:20.274Z,13672.00
2018-03-08T07:18:20.236Z,17056.00
2018-03-08T07:19:20.177Z,11332.00
2018-03-08T07:20:20.184Z,16928.00
2018-03-08T07:21:20.087Z,19296.00
2018-03-08T07:22:20.067Z,20672.00
2018-03-08T07:23:20.021Z,21536.00
2018-03-08T07:24:19.971Z,25728.00
2018-03-08T07:25:19.942Z,24832.00
2018-03-08T07:26:19.894Z,16088.00
2018-03-08T07:27:19.867Z,23840.00
2018-03-08T07:28:19.827Z,24512.00
2018-03-08T07:29:19.798Z,24896.00
2018-03-08T07:30:19.736Z,24832.00
2018-03-08T07:31:19.735Z,24032.00
2018-03-08T07:32:19.691Z,25088.00
2018-03-08T07:33:19.652Z,25536.00
2018-03-08T07:34:19.610Z,28288.00
2018-03-08T07:35:19.569Z,25632.00
2018-03-08T07:36:19.539Z,23520.00
2018-03-08T07:37:19.498Z,29504.00
2018-03-08T07:38:19.458Z,31648.00
2018-03-08T07:39:19.449Z,26208.00
2018-03-08T07:40:19.392Z,32448.00
2018-03-08T07:41:19.359Z,30720.00
2018-03-08T07:42:19.318Z,14416.00
2018-03-08T07:43:19.288Z,36128.00
2018-03-08T07:44:19.305Z,36160.00
2018-03-08T07:45:19.236Z,29952.00
2018-03-08T07:46:19.199Z,29248.00
2018-03-08T07:47:19.211Z,18688.00
2018-03-08T07:48:19.140Z,36768.00
2018-03-08T07:49:19.125Z,39136.00
2018-03-08T07:50:19.112Z,34752.00
2018-03-08T07:51:19.046Z,36288.00
2018-03-08T07:52:19.022Z,41440.00
2018-03-08T07:53:18.985Z,41504.00
2018-03-08T07:54:18.961Z,41568.00
2018-03-08T07:55:18.941Z,20640.00
2018-03-08T07:56:18.895Z,38592.00
2018-03-08T07:57:18.933Z,21824.00
2018-03-08T07:58:18.836Z,27424.00
2018-03-08T07:59:18.803Z,37600.00
2018-03-08T08:00:18.832Z,29024.00
2018-03-08T08:01:18.740Z,23360.00
2018-03-08T08:02:18.715Z,27232.00
2018-03-08T08:03:18.685Z,51584.00
2018-03-08T08:04:18.754Z,22976.00
2018-03-08T08:05:18.608Z,26944.00
2018-03-08T08:06:18.594Z,24800.00
2018-03-08T08:07:18.548Z,25920.00
2018-03-08T08:08:18.520Z,52032.00
2018-03-08T08:09:18.482Z,50624.00
2018-03-08T08:10:18.456Z,54656.00
2018-03-08T08:11:18.445Z,46688.00
2018-03-08T08:12:18.404Z,47488.00
2018-03-08T08:13:18.379Z,27744.00
2018-03-08T08:14:18.340Z,27360.00
2018-03-08T08:15:18.296Z,21376.00
2018-03-08T08:16:18.261Z,49536.00
2018-03-08T08:17:18.247Z,21152.00
2018-03-08T08:18:18.229Z,33696.00
2018-03-08T08:19:18.199Z,36800.00
2018-03-08T08:20:18.149Z,26784.00
2018-03-08T08:21:18.126Z,22912.00
2018-03-08T08:22:18.082Z,21280.00
2018-03-08T08:23:18.064Z,20512.00
2018-03-08T08:24:18.032Z,22848.00
2018-03-08T08:25:18.034Z,19200.00
2018-03-08T08:26:17.946Z,18912.00
2018-03-08T08:27:17.929Z,22208.00
2018-03-08T08:28:17.886Z,23968.00
2018-03-08T08:29:17.867Z,27136.00
2018-03-08T08:30:17.817Z,21184.00
2018-03-08T08:31:17.808Z,22496.00
2018-03-08T08:32:17.769Z,22976.00
2018-03-08T08:33:17.740Z,24416.00
2018-03-08T08:34:17.676Z,22528.00
2018-03-08T08:35:17.661Z,18976.00
2018-03-08T08:36:17.625Z,20096.00
2018-03-08T08:37:17.578Z,21792.00
2018-03-08T08:38:17.548Z,23392.00
2018-03-08T08:39:17.519Z,23456.00
2018-03-08T08:40:17.491Z,20832.00
2018-03-08T08:41:17.583Z,19040.00
2018-03-08T08:42:17.410Z,23136.00
2018-03-08T08:43:17.370Z,27520.00
2018-03-08T08:44:17.355Z,28352.00
2018-03-08T08:45:17.338Z,27808.00
2018-03-08T08:46:17.288Z,46656.00
2018-03-08T08:47:17.274Z,36736.00
2018-03-08T08:48:17.200Z,33376.00
2018-03-08T08:49:17.328Z,36224.00
2018-03-08T08:50:17.114Z,35520.00
2018-03-08T08:51:17.106Z,33632.00
2018-03-08T08:52:17.109Z,54528.00
2018-03-08T08:53:17.011Z,29024.00
2018-03-08T08:54:17.030Z,26592.00
2018-03-08T08:55:16.980Z,26912.00
2018-03-08T08:56:16.938Z,27264.00
2018-03-08T08:57:16.885Z,26080.00
2018-03-08T08:58:16.854Z,24352.00
2018-03-08T08:59:16.804Z,21216.00
2018-03-08T09:00:16.805Z,19360.00
2018-03-08T09:01:16.766Z,19840.00
2018-03-08T09:02:16.692Z,24032.00
2018-03-08T09:03:16.694Z,28704.00
2018-03-08T09:04:16.638Z,33856.00
2018-03-08T09:05:16.593Z,48160.00
2018-03-08T09:06:16.555Z,35296.00
2018-03-08T09:07:16.512Z,29472.00
2018-03-08T09:08:16.504Z,25760.00
2018-03-08T09:09:16.443Z,24544.00
2018-03-08T09:10:16.427Z,22752.00
2018-03-08T09:11:16.412Z,27648.00
2018-03-08T09:12:16.351Z,34176.00
2018-03-08T09:13:16.302Z,36064.00
2018-03-08T09:14:16.286Z,41376.00
2018-03-08T09:15:16.264Z,40800.00
2018-03-08T09:16:16.201Z,37408.00
2018-03-08T09:17:16.169Z,33120.00
2018-03-08T09:18:16.118Z,44224.00
2018-03-08T09:19:16.086Z,34240.00
2018-03-08T09:20:16.023Z,37952.00
2018-03-08T09:21:15.998Z,62560.00
2018-03-08T09:22:15.972Z,27712.00
2018-03-08T09:23:15.936Z,45120.00
2018-03-08T09:24:15.885Z,69600.00
2018-03-08T09:25:15.862Z,54464.00
2018-03-08T09:26:15.814Z,57984.00
2018-03-08T09:27:15.796Z,24256.00
2018-03-08T09:28:15.765Z,39968.00
2018-03-08T09:29:15.721Z,29472.00
2018-03-08T09:30:15.680Z,43136.00
2018-03-08T09:31:15.678Z,73536.00
2018-03-08T09:32:15.619Z,65696.00
2018-03-08T09:33:15.602Z,67872.00
2018-03-08T09:34:15.554Z,66560.00
2018-03-08T09:35:15.524Z,70656.00
2018-03-08T09:36:15.503Z,72256.00
2018-03-08T09:37:15.479Z,74976.00
2018-03-08T09:38:15.459Z,60448.00
2018-03-08T09:39:15.434Z,69600.00
2018-03-08T09:40:15.408Z,58912.00
2018-03-08T09:41:15.361Z,73664.00
2018-03-08T09:42:15.363Z,69280.00
2018-03-08T09:43:15.321Z,71744.00
2018-03-08T09:44:15.294Z,72896.00
2018-03-08T09:45:15.266Z,24288.00
2018-03-08T09:46:15.213Z,20704.00
2018-03-08T09:47:15.191Z,25760.00
2018-03-08T09:48:15.174Z,81408.00
2018-03-08T09:49:15.140Z,20192.00
2018-03-08T09:50:15.127Z,62048.00
2018-03-08T09:51:15.113Z,84160.00
2018-03-08T09:52:15.051Z,79968.00
2018-03-08T09:53:15.049Z,22144.00
2018-03-08T09:54:15.074Z,41216.00
2018-03-08T09:55:14.993Z,22208.00
2018-03-08T09:56:14.949Z,18996.00
2018-03-08T09:57:14.934Z,21280.00
2018-03-08T09:58:14.917Z,24576.00
2018-03-08T09:59:14.871Z,23104.00
2018-03-08T10:00:14.844Z,90016.00
2018-03-08T10:01:14.801Z,85600.00
2018-03-08T10:02:14.788Z,38720.00
2018-03-08T10:03:14.762Z,36096.00
2018-03-08T10:04:14.724Z,29440.00
2018-03-08T10:05:14.690Z,26752.00
2018-03-08T10:06:14.667Z,88000.00
2018-03-08T10:07:14.641Z,96384.00
2018-03-08T10:08:14.602Z,90560.00
2018-03-08T10:09:14.570Z,73760.00
2018-03-08T10:10:14.568Z,23392.00
2018-03-08T10:11:14.540Z,94368.00
2018-03-08T10:12:14.523Z,56832.00
2018-03-08T10:13:14.493Z,20704.00
2018-03-08T10:14:14.440Z,27008.00
2018-03-08T10:15:14.427Z,63904.00
2018-03-08T10:16:14.379Z,90464.00
2018-03-08T10:17:14.367Z,85088.00
2018-03-08T10:18:14.334Z,27264.00
2018-03-08T10:19:14.328Z,27776.00
2018-03-08T10:20:14.266Z,31328.00
2018-03-08T10:21:14.250Z,27584.00
2018-03-08T10:22:14.210Z,27488.00
2018-03-08T10:23:14.200Z,29984.00
2018-03-08T10:24:14.182Z,31200.00
2018-03-08T10:25:14.131Z,29984.00
2018-03-08T10:26:14.135Z,31712.00
2018-03-08T10:27:14.079Z,32416.00
2018-03-08T10:28:14.072Z,27648.00
2018-03-08T10:29:14.008Z,25248.00
2018-03-08T10:30:14.004Z,25088.00
2018-03-08T10:31:13.948Z,27552.00
2018-03-08T10:32:13.956Z,51040.00
2018-03-08T10:33:13.898Z,27936.00
2018-03-08T10:34:13.871Z,21376.00
2018-03-08T10:35:13.844Z,19072.00
2018-03-08T10:36:13.798Z,17508.00
2018-03-08T10:37:13.771Z,18680.00
2018-03-08T10:38:13.756Z,29536.00
2018-03-08T10:40:13.737Z,85216.00
2018-03-08T10:41:13.678Z,16956.00
2018-03-08T10:42:13.629Z,23296.00
2018-03-08T10:43:13.568Z,25472.00
2018-03-08T10:44:13.527Z,80384.00
2018-03-08T10:45:13.514Z,78816.00
2018-03-08T10:46:13.470Z,86080.00
2018-03-08T10:47:13.429Z,54112.00
2018-03-08T10:48:13.436Z,15900.00
2018-03-08T10:49:13.355Z,15116.00
2018-03-08T10:50:13.371Z,17020.00
2018-03-08T10:51:13.300Z,20960.00
2018-03-08T10:52:13.274Z,15104.00
2018-03-08T10:53:13.255Z,18056.00
2018-03-08T10:54:13.261Z,18944.00
2018-03-08T10:55:13.199Z,20352.00
2018-03-08T10:56:13.162Z,79744.00
2018-03-08T10:57:13.116Z,21760.00
2018-03-08T10:58:13.073Z,23360.00
2018-03-08T10:59:13.085Z,26976.00
2018-03-08T11:00:13.033Z,24928.00
2018-03-08T11:01:13.004Z,18860.00
2018-03-08T11:02:12.942Z,20128.00
2018-03-08T11:03:12.900Z,86272.00
2018-03-08T11:04:12.871Z,19532.00
2018-03-08T11:05:12.837Z,27456.00
2018-03-08T11:06:12.809Z,86176.00
2018-03-08T11:07:12.765Z,92192.00
2018-03-08T11:08:12.721Z,90496.00
2018-03-08T11:09:12.695Z,81696.00
2018-03-08T11:10:12.691Z,87744.00
2018-03-08T11:11:12.640Z,85024.00
2018-03-08T11:12:12.601Z,86560.00
2018-03-08T11:13:12.577Z,83968.00
2018-03-08T11:14:12.537Z,79008.00
2018-03-08T11:15:12.515Z,73664.00
2018-03-08T11:16:12.512Z,93312.00
2018-03-08T11:17:12.494Z,96448.00
2018-03-08T11:18:12.437Z,104512.00
2018-03-08T11:19:12.398Z,100736.00
2018-03-08T11:20:12.350Z,102368.00
2018-03-08T11:21:12.312Z,95168.00
2018-03-08T11:22:12.302Z,90400.00
2018-03-08T11:23:12.244Z,92928.00
2018-03-08T11:24:12.236Z,103200.00
2018-03-08T11:25:12.192Z,103008.00
2018-03-08T11:26:12.163Z,94816.00
2018-03-08T11:27:12.167Z,87808.00
2018-03-08T11:28:12.110Z,96544.00
2018-03-08T11:29:12.085Z,83072.00
2018-03-08T11:30:12.069Z,89600.00
2018-03-08T11:31:12.022Z,95072.00
2018-03-08T11:32:12.020Z,96192.00
2018-03-08T11:33:11.977Z,34944.00
2018-03-08T11:34:11.935Z,36032.00
2018-03-08T11:35:11.928Z,34496.00
2018-03-08T11:36:11.897Z,23648.00
2018-03-08T11:37:11.872Z,23520.00
2018-03-08T11:38:11.845Z,25632.00
2018-03-08T11:39:11.819Z,60384.00
2018-03-08T11:40:11.828Z,28800.00
2018-03-08T11:41:11.790Z,33152.00
2018-03-08T11:42:11.726Z,32736.00
2018-03-08T11:43:11.696Z,33856.00
2018-03-08T11:44:11.682Z,35904.00
2018-03-08T11:45:11.653Z,42528.00
2018-03-08T11:46:11.648Z,62560.00
2018-03-08T11:47:11.591Z,28928.00
2018-03-08T11:48:11.558Z,33792.00
2018-03-08T11:49:11.548Z,27168.00
2018-03-08T11:50:11.537Z,33664.00
2018-03-08T11:51:11.489Z,56608.00
2018-03-08T11:52:11.440Z,92864.00
2018-03-08T11:53:11.413Z,27456.00
2018-03-08T11:54:11.365Z,26528.00
2018-03-08T11:55:11.363Z,42208.00
2018-03-08T11:56:11.357Z,90176.00
2018-03-08T11:57:11.322Z,97760.00
2018-03-08T11:58:11.256Z,106368.00
2018-03-08T11:59:11.268Z,108960.00
2018-03-08T12:00:11.248Z,111712.00
2018-03-08T12:01:11.187Z,115840.00
2018-03-08T12:02:11.139Z,116672.00
2018-03-08T12:03:11.099Z,105632.00
2018-03-08T12:04:11.091Z,39072.00
2018-03-08T12:05:11.051Z,83104.00
2018-03-08T12:06:11.853Z,37312.00
2018-03-08T12:07:10.995Z,47904.00
2018-03-08T12:08:10.994Z,101856.00
2018-03-08T12:09:10.915Z,84640.00
2018-03-08T12:10:10.911Z,45312.00
2018-03-08T12:11:10.876Z,24128.00
2018-03-08T12:12:10.839Z,24224.00
2018-03-08T12:13:10.863Z,27072.00
2018-03-08T12:14:10.779Z,28224.00
2018-03-08T12:15:10.777Z,27712.00
2018-03-08T12:16:10.801Z,84480.00
2018-03-08T12:17:11.377Z,34496.00
2018-03-08T12:18:10.721Z,33280.00
2018-03-08T12:19:10.687Z,53888.00
2018-03-08T12:20:10.602Z,32032.00
2018-03-08T12:21:10.600Z,32224.00
2018-03-08T12:22:10.569Z,46912.00
2018-03-08T12:23:10.674Z,36768.00
2018-03-08T12:24:10.478Z,32000.00
2018-03-08T12:25:10.461Z,28096.00
2018-03-08T12:26:10.437Z,28960.00
2018-03-08T12:27:10.402Z,28064.00